Etusivu
METAR-TAF:

METAR-TAF

Lentoasemat :

Tozeur, Tunisia

Leveyspiiri: 33-55N, Pituuspiiri: 008-06E, korkeus merenpinnasta: 87 m

Tämänhetkinen sää

Tämä raportti tehtiin 52 minuuttia sitten, kello 13.00 UTC
Tuuli 3 kn lännestä/lounaasta, vaihdellen etelän/kaakon ja lännen/luoteen välillä
Lämpötila 19°C
Kosteus 43%
Ilmanpaine 1026 hPa
Näkyvyys 10 km tai enemmän
ei pilviä alle 1500 m:ssä eikä cumulonimbus-pilviä

METAR: DTTZ 181300Z 24003KT 160V300 CAVOK 19/06 Q1026 NOSIG

Aika: 14:52 (13:52 UTC)

Sääennuste

Tämä raportti tehtiin 2 tuntia ja 52 minuuttia sitten, kello 11.00 UTC
Ennuste voimassa 18. päivästä klo 12 UTC - 19. päivään klo 12 UTC
Tuuli 5 kn etelästä/kaakosta
Näkyvyys 10 km tai enemmän
ei pilviä alle 1500 m:ssä eikä cumulonimbus-pilviä

TAF: DTTZ 181100Z 1812/1912 16005KT CAVOK

Säähavainnot ja -ennusteet yli 4000 lentoasemalta (METAR- ja TAF-raportit).

Käytössä olevat sääasemat on merkitty karttaan keltaisilla ja punaisilla pisteillä.

Aseta hiiri pisteen päälle nähdäksesi sääaseman nimen.

Klikkaa sitten nähdäksesi säähavainnot ja -ennusteet.

Kartan vaihtaminen: klikkaa mustalla rastilla varustettuja vihreitä pisteitä, niin voit zoomata sisään; viivalla varustettua vihreää pistettä, niin voit zoomata ulos tai vihreitä nuolia, niin pääset viereisille kartoille.


METAR-TAF: